sensor_id;sensor_type;location;lat;lon;timestamp;pressure;altitude;pressure_sealevel;temperature;humidity
30516;BME280;17297;54.022;10.760;2023-12-20T00:01:16;100758.06;;;9.23;72.68
30516;BME280;17297;54.022;10.760;2023-12-20T00:03:41;100760.75;;;9.23;72.68
30516;BME280;17297;54.022;10.760;2023-12-20T00:06:06;100752.88;;;9.21;72.51
30516;BME280;17297;54.022;10.760;2023-12-20T00:08:31;100759.25;;;9.20;72.58
30516;BME280;17297;54.022;10.760;2023-12-20T00:10:57;100742.50;;;9.18;72.62
30516;BME280;17297;54.022;10.760;2023-12-20T00:13:22;100746.22;;;9.17;72.57
30516;BME280;17297;54.022;10.760;2023-12-20T00:15:47;100748.22;;;9.15;72.69
30516;BME280;17297;54.022;10.760;2023-12-20T00:18:13;100746.41;;;9.16;72.63
30516;BME280;17297;54.022;10.760;2023-12-20T00:20:38;100749.25;;;9.14;72.50
30516;BME280;17297;54.022;10.760;2023-12-20T00:23:04;100747.59;;;9.13;72.51
30516;BME280;17297;54.022;10.760;2023-12-20T00:25:29;100749.44;;;9.13;72.75
30516;BME280;17297;54.022;10.760;2023-12-20T00:27:54;100741.41;;;9.13;72.60
30516;BME280;17297;54.022;10.760;2023-12-20T00:30:19;100738.72;;;9.13;72.68
30516;BME280;17297;54.022;10.760;2023-12-20T00:32:45;100726.13;;;9.13;72.58
30516;BME280;17297;54.022;10.760;2023-12-20T00:35:13;100730.66;;;9.13;72.54
30516;BME280;17297;54.022;10.760;2023-12-20T00:37:39;100733.34;;;9.13;72.61
30516;BME280;17297;54.022;10.760;2023-12-20T00:40:05;100733.16;;;9.14;72.54
30516;BME280;17297;54.022;10.760;2023-12-20T00:42:30;100738.34;;;9.16;72.73
30516;BME280;17297;54.022;10.760;2023-12-20T00:44:56;100737.31;;;9.17;72.81
30516;BME280;17297;54.022;10.760;2023-12-20T00:47:21;100741.03;;;9.16;72.56
30516;BME280;17297;54.022;10.760;2023-12-20T00:49:47;100733.16;;;9.14;72.41
30516;BME280;17297;54.022;10.760;2023-12-20T00:52:12;100734.19;;;9.13;72.54
30516;BME280;17297;54.022;10.760;2023-12-20T00:54:37;100741.41;;;9.13;72.51
30516;BME280;17297;54.022;10.760;2023-12-20T00:57:03;100738.06;;;9.11;72.40
30516;BME280;17297;54.022;10.760;2023-12-20T00:59:28;100732.69;;;9.11;72.47
30516;BME280;17297;54.022;10.760;2023-12-20T01:01:54;100730.00;;;9.11;72.66
30516;BME280;17297;54.022;10.760;2023-12-20T01:04:19;100734.53;;;9.10;72.75
30516;BME280;17297;54.022;10.760;2023-12-20T01:06:44;100736.66;;;9.15;72.70
30516;BME280;17297;54.022;10.760;2023-12-20T01:09:10;100730.47;;;9.14;72.54
30516;BME280;17297;54.022;10.760;2023-12-20T01:11:35;100730.09;;;9.17;72.56
30516;BME280;17297;54.022;10.760;2023-12-20T01:14:00;100712.97;;;9.18;72.82
30516;BME280;17297;54.022;10.760;2023-12-20T01:16:26;100709.09;;;9.21;72.62
30516;BME280;17297;54.022;10.760;2023-12-20T01:18:51;100707.06;;;9.23;72.82
30516;BME280;17297;54.022;10.760;2023-12-20T01:21:16;100703.34;;;9.24;72.84
30516;BME280;17297;54.022;10.760;2023-12-20T01:23:42;100704.63;;;9.28;72.86
30516;BME280;17297;54.022;10.760;2023-12-20T01:26:07;100706.31;;;9.29;72.78
30516;BME280;17297;54.022;10.760;2023-12-20T01:28:32;100694.56;;;9.30;72.73
30516;BME280;17297;54.022;10.760;2023-12-20T01:30:57;100692.53;;;9.32;72.79
30516;BME280;17297;54.022;10.760;2023-12-20T01:33:23;100694.19;;;9.33;72.71
30516;BME280;17297;54.022;10.760;2023-12-20T01:35:48;100693.16;;;9.34;72.59
30516;BME280;17297;54.022;10.760;2023-12-20T01:38:14;100700.00;;;9.37;72.57
30516;BME280;17297;54.022;10.760;2023-12-20T01:40:39;100701.69;;;9.38;72.55
30516;BME280;17297;54.022;10.760;2023-12-20T01:43:08;100702.53;;;9.38;72.77
30516;BME280;17297;54.022;10.760;2023-12-20T01:45:34;100691.78;;;9.38;72.62
30516;BME280;17297;54.022;10.760;2023-12-20T01:47:59;100680.22;;;9.38;72.54
30516;BME280;17297;54.022;10.760;2023-12-20T01:50:27;100684.94;;;9.36;72.64
30516;BME280;17297;54.022;10.760;2023-12-20T01:52:53;100680.75;;;9.33;72.57
30516;BME280;17297;54.022;10.760;2023-12-20T01:55:22;100675.59;;;9.32;72.32
30516;BME280;17297;54.022;10.760;2023-12-20T01:57:48;100676.78;;;9.29;72.29
30516;BME280;17297;54.022;10.760;2023-12-20T02:00:14;100675.09;;;9.28;72.40
30516;BME280;17297;54.022;10.760;2023-12-20T02:02:40;100677.78;;;9.28;72.57
30516;BME280;17297;54.022;10.760;2023-12-20T02:05:07;100674.13;;;9.29;72.34
30516;BME280;17297;54.022;10.760;2023-12-20T02:07:32;100674.13;;;9.29;72.60
30516;BME280;17297;54.022;10.760;2023-12-20T02:10:00;100667.72;;;9.30;72.55
30516;BME280;17297;54.022;10.760;2023-12-20T02:12:25;100661.31;;;9.31;72.62
30516;BME280;17297;54.022;10.760;2023-12-20T02:14:51;100646.06;;;9.32;72.63
30516;BME280;17297;54.022;10.760;2023-12-20T02:17:16;100644.22;;;9.32;72.47
30516;BME280;17297;54.022;10.760;2023-12-20T02:19:43;100638.63;;;9.34;72.32
30516;BME280;17297;54.022;10.760;2023-12-20T02:22:09;100638.00;;;9.32;72.39
30516;BME280;17297;54.022;10.760;2023-12-20T02:28:03;100633.19;;;9.27;72.11
30516;BME280;17297;54.022;10.760;2023-12-20T02:30:30;100630.72;;;9.25;72.26
30516;BME280;17297;54.022;10.760;2023-12-20T02:32:56;100628.03;;;9.25;72.19
30516;BME280;17297;54.022;10.760;2023-12-20T02:35:21;100625.50;;;9.24;72.29
30516;BME280;17297;54.022;10.760;2023-12-20T02:37:46;100616.63;;;9.23;72.11
30516;BME280;17297;54.022;10.760;2023-12-20T02:40:12;100610.44;;;9.23;72.29
30516;BME280;17297;54.022;10.760;2023-12-20T02:42:37;100619.50;;;9.22;72.25
30516;BME280;17297;54.022;10.760;2023-12-20T02:45:02;100616.19;;;9.20;72.28
30516;BME280;17297;54.022;10.760;2023-12-20T02:47:28;100608.13;;;9.20;72.16
30516;BME280;17297;54.022;10.760;2023-12-20T02:49:55;100611.63;;;9.20;72.38
30516;BME280;17297;54.022;10.760;2023-12-20T02:52:20;100608.94;;;9.20;72.33
30516;BME280;17297;54.022;10.760;2023-12-20T02:54:46;100599.03;;;9.21;72.30
30516;BME280;17297;54.022;10.760;2023-12-20T02:57:11;100597.84;;;9.23;72.18
30516;BME280;17297;54.022;10.760;2023-12-20T02:59:37;100595.81;;;9.25;72.38
30516;BME280;17297;54.022;10.760;2023-12-20T03:02:02;100608.19;;;9.27;72.28
30516;BME280;17297;54.022;10.760;2023-12-20T03:04:27;100603.66;;;9.27;72.38
30516;BME280;17297;54.022;10.760;2023-12-20T03:06:53;100583.00;;;9.28;72.19
30516;BME280;17297;54.022;10.760;2023-12-20T03:09:18;100575.78;;;9.28;72.34
30516;BME280;17297;54.022;10.760;2023-12-20T03:11:43;100575.63;;;9.30;72.32
30516;BME280;17297;54.022;10.760;2023-12-20T03:14:08;100574.78;;;9.29;72.23
30516;BME280;17297;54.022;10.760;2023-12-20T03:16:34;100570.03;;;9.31;72.20
30516;BME280;17297;54.022;10.760;2023-12-20T03:18:59;100562.19;;;9.30;72.12
30516;BME280;17297;54.022;10.760;2023-12-20T03:21:24;100564.88;;;9.30;72.04
30516;BME280;17297;54.022;10.760;2023-12-20T03:23:50;100556.00;;;9.29;71.98
30516;BME280;17297;54.022;10.760;2023-12-20T03:26:15;100557.84;;;9.29;72.22
30516;BME280;17297;54.022;10.760;2023-12-20T03:28:41;100549.97;;;9.27;72.23
30516;BME280;17297;54.022;10.760;2023-12-20T03:31:06;100541.09;;;9.27;72.04
30516;BME280;17297;54.022;10.760;2023-12-20T03:33:31;100532.00;;;9.28;72.20
30516;BME280;17297;54.022;10.760;2023-12-20T03:35:57;100546.63;;;9.25;71.94
30516;BME280;17297;54.022;10.760;2023-12-20T03:38:22;100537.59;;;9.26;72.18
30516;BME280;17297;54.022;10.760;2023-12-20T03:40:49;100522.47;;;9.25;72.22
30516;BME280;17297;54.022;10.760;2023-12-20T03:43:15;100526.84;;;9.26;72.08
30516;BME280;17297;54.022;10.760;2023-12-20T03:45:42;100522.31;;;9.27;72.05
30516;BME280;17297;54.022;10.760;2023-12-20T03:48:07;100515.28;;;9.25;72.06
30516;BME280;17297;54.022;10.760;2023-12-20T03:50:32;100523.13;;;9.27;72.10
30516;BME280;17297;54.022;10.760;2023-12-20T03:52:57;100532.00;;;9.28;72.08
30516;BME280;17297;54.022;10.760;2023-12-20T03:55:23;100516.72;;;9.28;72.16
30516;BME280;17297;54.022;10.760;2023-12-20T03:57:48;100516.56;;;9.30;71.96
30516;BME280;17297;54.022;10.760;2023-12-20T04:00:14;100518.22;;;9.31;72.01
30516;BME280;17297;54.022;10.760;2023-12-20T04:02:42;100516.56;;;9.30;71.90
30516;BME280;17297;54.022;10.760;2023-12-20T04:05:09;100504.78;;;9.31;71.96
30516;BME280;17297;54.022;10.760;2023-12-20T04:07:37;100512.66;;;9.32;72.15
30516;BME280;17297;54.022;10.760;2023-12-20T04:10:03;100507.31;;;9.32;72.13
30516;BME280;17297;54.022;10.760;2023-12-20T04:12:29;100500.06;;;9.33;71.86
30516;BME280;17297;54.022;10.760;2023-12-20T04:14:54;100514.16;;;9.35;72.00
30516;BME280;17297;54.022;10.760;2023-12-20T04:17:20;100507.91;;;9.34;71.94
30516;BME280;17297;54.022;10.760;2023-12-20T04:19:47;100508.78;;;9.35;72.20
30516;BME280;17297;54.022;10.760;2023-12-20T04:22:13;100497.00;;;9.36;72.00
30516;BME280;17297;54.022;10.760;2023-12-20T04:24:38;100479.03;;;9.36;71.77
30516;BME280;17297;54.022;10.760;2023-12-20T04:27:04;100487.09;;;9.36;71.83
30516;BME280;17297;54.022;10.760;2023-12-20T04:29:29;100474.72;;;9.35;71.94
30516;BME280;17297;54.022;10.760;2023-12-20T04:31:54;100473.69;;;9.36;71.98
30516;BME280;17297;54.022;10.760;2023-12-20T04:34:21;100473.69;;;9.36;71.97
30516;BME280;17297;54.022;10.760;2023-12-20T04:36:46;100458.41;;;9.37;71.86
30516;BME280;17297;54.022;10.760;2023-12-20T04:39:12;100466.44;;;9.37;71.76
30516;BME280;17297;54.022;10.760;2023-12-20T04:41:38;100462.75;;;9.38;71.73
30516;BME280;17297;54.022;10.760;2023-12-20T04:44:03;100467.28;;;9.37;71.71
30516;BME280;17297;54.022;10.760;2023-12-20T04:46:29;100460.91;;;9.38;71.64
30516;BME280;17297;54.022;10.760;2023-12-20T04:48:54;100459.88;;;9.39;71.96
30516;BME280;17297;54.022;10.760;2023-12-20T04:51:20;100460.91;;;9.38;71.83
30516;BME280;17297;54.022;10.760;2023-12-20T04:53:45;100451.00;;;9.39;71.75
30516;BME280;17297;54.022;10.760;2023-12-20T04:56:11;100455.53;;;9.38;71.74
30516;BME280;17297;54.022;10.760;2023-12-20T04:58:36;100445.63;;;9.39;71.60
30516;BME280;17297;54.022;10.760;2023-12-20T05:01:03;100453.66;;;9.39;71.88
30516;BME280;17297;54.022;10.760;2023-12-20T05:03:28;100451.63;;;9.41;71.70
30516;BME280;17297;54.022;10.760;2023-12-20T05:05:54;100452.63;;;9.40;71.66
30516;BME280;17297;54.022;10.760;2023-12-20T05:08:19;100455.31;;;9.40;71.73
30516;BME280;17297;54.022;10.760;2023-12-20T05:10:45;100450.16;;;9.38;71.68
30516;BME280;17297;54.022;10.760;2023-12-20T05:13:10;100448.31;;;9.39;71.75
30516;BME280;17297;54.022;10.760;2023-12-20T05:15:35;100441.28;;;9.38;71.63
30516;BME280;17297;54.022;10.760;2023-12-20T05:18:01;100430.53;;;9.38;71.54
30516;BME280;17297;54.022;10.760;2023-12-20T05:20:26;100428.03;;;9.36;71.62
30516;BME280;17297;54.022;10.760;2023-12-20T05:22:51;100417.50;;;9.35;71.51
30516;BME280;17297;54.022;10.760;2023-12-20T05:25:17;100431.94;;;9.34;71.77
30516;BME280;17297;54.022;10.760;2023-12-20T05:27:42;100431.94;;;9.34;71.73
30516;BME280;17297;54.022;10.760;2023-12-20T05:30:08;100433.78;;;9.33;71.79
30516;BME280;17297;54.022;10.760;2023-12-20T05:32:33;100442.06;;;9.32;71.77
30516;BME280;17297;54.022;10.760;2023-12-20T05:34:58;100443.88;;;9.31;71.80
30516;BME280;17297;54.022;10.760;2023-12-20T05:37:24;100442.22;;;9.30;71.74
30516;BME280;17297;54.022;10.760;2023-12-20T05:39:49;100433.53;;;9.28;71.60
30516;BME280;17297;54.022;10.760;2023-12-20T05:42:14;100420.09;;;9.28;72.02
30516;BME280;17297;54.022;10.760;2023-12-20T05:44:40;100414.75;;;9.28;71.74
30516;BME280;17297;54.022;10.760;2023-12-20T05:47:05;100418.66;;;9.25;71.66
30516;BME280;17297;54.022;10.760;2023-12-20T05:49:30;100400.06;;;9.24;71.69
30516;BME280;17297;54.022;10.760;2023-12-20T05:51:56;100405.63;;;9.22;71.69
30516;BME280;17297;54.022;10.760;2023-12-20T05:54:22;100390.53;;;9.21;71.88
30516;BME280;17297;54.022;10.760;2023-12-20T05:56:48;100404.16;;;9.20;71.67
30516;BME280;17297;54.022;10.760;2023-12-20T05:59:13;100397.31;;;9.17;71.74
30516;BME280;17297;54.022;10.760;2023-12-20T06:01:39;100400.19;;;9.16;71.90
30516;BME280;17297;54.022;10.760;2023-12-20T06:04:04;100393.16;;;9.15;71.85
30516;BME280;17297;54.022;10.760;2023-12-20T06:06:30;100407.41;;;9.15;71.78
30516;BME280;17297;54.022;10.760;2023-12-20T06:08:55;100395.84;;;9.15;72.00
30516;BME280;17297;54.022;10.760;2023-12-20T06:11:21;100384.47;;;9.13;71.82
30516;BME280;17297;54.022;10.760;2023-12-20T06:13:46;100391.50;;;9.14;71.86
30516;BME280;17297;54.022;10.760;2023-12-20T06:16:11;100393.34;;;9.13;71.98
30516;BME280;17297;54.022;10.760;2023-12-20T06:18:37;100397.03;;;9.12;71.96
30516;BME280;17297;54.022;10.760;2023-12-20T06:21:02;100391.69;;;9.12;72.15
30516;BME280;17297;54.022;10.760;2023-12-20T06:23:28;100379.28;;;9.11;71.96
30516;BME280;17297;54.022;10.760;2023-12-20T06:25:53;100381.81;;;9.13;72.18
30516;BME280;17297;54.022;10.760;2023-12-20T06:28:18;100379.28;;;9.11;72.00
30516;BME280;17297;54.022;10.760;2023-12-20T06:30:44;100372.06;;;9.12;72.00
30516;BME280;17297;54.022;10.760;2023-12-20T06:33:09;100389.84;;;9.13;72.03
30516;BME280;17297;54.022;10.760;2023-12-20T06:35:36;100389.00;;;9.12;72.14
30516;BME280;17297;54.022;10.760;2023-12-20T06:38:01;100386.50;;;9.11;72.33
30516;BME280;17297;54.022;10.760;2023-12-20T06:40:27;100362.38;;;9.11;72.31
30516;BME280;17297;54.022;10.760;2023-12-20T06:42:52;100371.25;;;9.11;72.15
30516;BME280;17297;54.022;10.760;2023-12-20T06:45:18;100375.13;;;9.09;71.90
30516;BME280;17297;54.022;10.760;2023-12-20T06:47:43;100373.47;;;9.08;72.06
30516;BME280;17297;54.022;10.760;2023-12-20T06:50:08;100369.97;;;9.07;72.25
30516;BME280;17297;54.022;10.760;2023-12-20T06:52:34;100363.78;;;9.07;72.18
30516;BME280;17297;54.022;10.760;2023-12-20T06:55:00;100357.38;;;9.08;72.34
30516;BME280;17297;54.022;10.760;2023-12-20T06:57:26;100360.88;;;9.08;72.25
30516;BME280;17297;54.022;10.760;2023-12-20T06:59:51;100360.88;;;9.08;72.28
30516;BME280;17297;54.022;10.760;2023-12-20T07:02:17;100357.19;;;9.09;72.38
30516;BME280;17297;54.022;10.760;2023-12-20T07:04:42;100352.66;;;9.10;72.23
30516;BME280;17297;54.022;10.760;2023-12-20T07:07:08;100338.88;;;9.13;72.47
30516;BME280;17297;54.022;10.760;2023-12-20T07:09:33;100339.69;;;9.13;72.50
30516;BME280;17297;54.022;10.760;2023-12-20T07:11:59;100339.69;;;9.13;72.38
30516;BME280;17297;54.022;10.760;2023-12-20T07:14:24;100344.03;;;9.14;72.31
30516;BME280;17297;54.022;10.760;2023-12-20T07:16:50;100344.03;;;9.14;72.23
30516;BME280;17297;54.022;10.760;2023-12-20T07:19:15;100336.78;;;9.15;72.49
30516;BME280;17297;54.022;10.760;2023-12-20T07:21:40;100335.78;;;9.16;72.33
30516;BME280;17297;54.022;10.760;2023-12-20T07:24:06;100336.41;;;9.18;72.61
30516;BME280;17297;54.022;10.760;2023-12-20T07:26:31;100346.09;;;9.19;72.54
30516;BME280;17297;54.022;10.760;2023-12-20T07:28:56;100349.66;;;9.19;72.39
30516;BME280;17297;54.022;10.760;2023-12-20T07:31:23;100351.94;;;9.22;72.59
30516;BME280;17297;54.022;10.760;2023-12-20T07:33:49;100354.81;;;9.21;72.54
30516;BME280;17297;54.022;10.760;2023-12-20T07:36:14;100351.94;;;9.22;72.59
30516;BME280;17297;54.022;10.760;2023-12-20T07:38:40;100362.47;;;9.24;72.63
30516;BME280;17297;54.022;10.760;2023-12-20T07:41:09;100360.81;;;9.23;72.66
30516;BME280;17297;54.022;10.760;2023-12-20T07:43:34;100349.06;;;9.24;72.50
30516;BME280;17297;54.022;10.760;2023-12-20T07:46:06;100345.34;;;9.25;72.70
30516;BME280;17297;54.022;10.760;2023-12-20T07:48:36;100344.50;;;9.24;72.58
30516;BME280;17297;54.022;10.760;2023-12-20T07:51:02;100344.50;;;9.24;72.72
30516;BME280;17297;54.022;10.760;2023-12-20T07:53:28;100335.63;;;9.24;72.48
30516;BME280;17297;54.022;10.760;2023-12-20T07:55:53;100347.19;;;9.24;72.61
30516;BME280;17297;54.022;10.760;2023-12-20T07:58:19;100346.19;;;9.25;72.74
30516;BME280;17297;54.022;10.760;2023-12-20T08:00:45;100343.69;;;9.24;72.63
30516;BME280;17297;54.022;10.760;2023-12-20T08:03:10;100330.25;;;9.24;72.77
30516;BME280;17297;54.022;10.760;2023-12-20T08:05:35;100316.03;;;9.23;72.64
30516;BME280;17297;54.022;10.760;2023-12-20T08:08:01;100333.97;;;9.23;72.73
30516;BME280;17297;54.022;10.760;2023-12-20T08:10:26;100317.06;;;9.22;72.59
30516;BME280;17297;54.022;10.760;2023-12-20T08:12:54;100326.75;;;9.23;72.59
30516;BME280;17297;54.022;10.760;2023-12-20T08:15:20;100314.56;;;9.21;72.73
30516;BME280;17297;54.022;10.760;2023-12-20T08:17:45;100315.38;;;9.21;72.53
30516;BME280;17297;54.022;10.760;2023-12-20T08:20:10;100314.38;;;9.22;72.84
30516;BME280;17297;54.022;10.760;2023-12-20T08:22:36;100317.88;;;9.23;72.61
30516;BME280;17297;54.022;10.760;2023-12-20T08:25:01;100315.19;;;9.23;72.64
30516;BME280;17297;54.022;10.760;2023-12-20T08:27:26;100322.41;;;9.22;72.84
30516;BME280;17297;54.022;10.760;2023-12-20T08:29:52;100305.28;;;9.23;72.66
30516;BME280;17297;54.022;10.760;2023-12-20T08:32:17;100295.59;;;9.22;72.75
30516;BME280;17297;54.022;10.760;2023-12-20T08:34:43;100291.88;;;9.23;72.62
30516;BME280;17297;54.022;10.760;2023-12-20T08:37:08;100298.28;;;9.22;72.89
30516;BME280;17297;54.022;10.760;2023-12-20T08:39:33;100277.63;;;9.23;72.77
30516;BME280;17297;54.022;10.760;2023-12-20T08:41:59;100249.97;;;9.22;72.75
30516;BME280;17297;54.022;10.760;2023-12-20T08:44:24;100246.25;;;9.23;72.82
30516;BME280;17297;54.022;10.760;2023-12-20T08:46:49;100238.19;;;9.23;72.85
30516;BME280;17297;54.022;10.760;2023-12-20T08:49:15;100217.53;;;9.24;72.74
30516;BME280;17297;54.022;10.760;2023-12-20T08:51:40;100226.22;;;9.26;73.01
30516;BME280;17297;54.022;10.760;2023-12-20T08:54:06;100233.47;;;9.25;73.08
30516;BME280;17297;54.022;10.760;2023-12-20T08:56:33;100227.06;;;9.27;72.97
30516;BME280;17297;54.022;10.760;2023-12-20T08:58:59;100234.91;;;9.28;73.09
30516;BME280;17297;54.022;10.760;2023-12-20T09:01:24;100225.84;;;9.29;72.98
30516;BME280;17297;54.022;10.760;2023-12-20T09:03:49;100220.47;;;9.29;72.99
30516;BME280;17297;54.022;10.760;2023-12-20T09:06:15;100220.47;;;9.29;73.22
30516;BME280;17297;54.022;10.760;2023-12-20T09:08:40;100217.56;;;9.31;73.01
30516;BME280;17297;54.022;10.760;2023-12-20T09:11:06;100224.81;;;9.30;72.96
30516;BME280;17297;54.022;10.760;2023-12-20T09:13:32;100217.56;;;9.31;73.04
30516;BME280;17297;54.022;10.760;2023-12-20T09:15:57;100221.94;;;9.32;73.03
30516;BME280;17297;54.022;10.760;2023-12-20T09:18:23;100233.50;;;9.32;73.13
30516;BME280;17297;54.022;10.760;2023-12-20T09:20:48;100223.59;;;9.33;73.08
30516;BME280;17297;54.022;10.760;2023-12-20T09:23:14;100226.28;;;9.33;73.15
30516;BME280;17297;54.022;10.760;2023-12-20T09:25:39;100230.00;;;9.32;72.95
30516;BME280;17297;54.022;10.760;2023-12-20T09:28:04;100221.09;;;9.31;72.87
30516;BME280;17297;54.022;10.760;2023-12-20T09:30:30;100224.16;;;9.28;73.06
30516;BME280;17297;54.022;10.760;2023-12-20T09:32:56;100231.38;;;9.28;72.85
30516;BME280;17297;54.022;10.760;2023-12-20T09:35:21;100235.94;;;9.27;73.10
30516;BME280;17297;54.022;10.760;2023-12-20T09:37:48;100230.78;;;9.25;72.92
30516;BME280;17297;54.022;10.760;2023-12-20T09:40:14;100229.09;;;9.24;73.16
30516;BME280;17297;54.022;10.760;2023-12-20T09:43:13;100223.13;;;9.22;73.07
30516;BME280;17297;54.022;10.760;2023-12-20T09:45:39;100226.81;;;9.21;72.81
30516;BME280;17297;54.022;10.760;2023-12-20T09:48:07;100219.97;;;9.19;72.96
30516;BME280;17297;54.022;10.760;2023-12-20T09:50:32;100214.59;;;9.19;73.09
30516;BME280;17297;54.022;10.760;2023-12-20T09:53:00;100226.38;;;9.18;73.10
30516;BME280;17297;54.022;10.760;2023-12-20T09:55:26;100230.91;;;9.17;73.09
30516;BME280;17297;54.022;10.760;2023-12-20T09:57:53;100230.09;;;9.17;72.90
30516;BME280;17297;54.022;10.760;2023-12-20T10:00:18;100232.78;;;9.17;72.92
30516;BME280;17297;54.022;10.760;2023-12-20T10:02:57;100230.28;;;9.15;73.20
30516;BME280;17297;54.022;10.760;2023-12-20T10:05:30;100241.00;;;9.15;73.06
30516;BME280;17297;54.022;10.760;2023-12-20T10:07:55;100236.28;;;9.17;73.06
30516;BME280;17297;54.022;10.760;2023-12-20T10:10:21;100244.34;;;9.17;72.79
30516;BME280;17297;54.022;10.760;2023-12-20T10:13:09;100240.19;;;9.15;72.93
30516;BME280;17297;54.022;10.760;2023-12-20T10:15:36;100243.09;;;9.13;72.84
30516;BME280;17297;54.022;10.760;2023-12-20T10:18:02;100243.66;;;9.09;72.81
30516;BME280;17297;54.022;10.760;2023-12-20T10:20:29;100249.22;;;9.07;72.67
30516;BME280;17297;54.022;10.760;2023-12-20T10:22:55;100255.81;;;9.05;72.86
30516;BME280;17297;54.022;10.760;2023-12-20T10:25:21;100258.88;;;9.01;72.57
30516;BME280;17297;54.022;10.760;2023-12-20T10:27:47;100262.59;;;9.00;72.59
30516;BME280;17297;54.022;10.760;2023-12-20T10:30:16;100261.94;;;8.98;72.81
30516;BME280;17297;54.022;10.760;2023-12-20T10:32:41;100256.75;;;8.97;72.77
30516;BME280;17297;54.022;10.760;2023-12-20T10:35:07;100248.09;;;8.95;72.65
30516;BME280;17297;54.022;10.760;2023-12-20T10:37:39;100263.38;;;8.94;72.52
30516;BME280;17297;54.022;10.760;2023-12-20T10:40:05;100253.47;;;8.95;72.80
30516;BME280;17297;54.022;10.760;2023-12-20T10:42:32;100246.25;;;8.95;72.76
30516;BME280;17297;54.022;10.760;2023-12-20T10:44:59;100243.34;;;8.97;72.70
30516;BME280;17297;54.022;10.760;2023-12-20T10:47:25;100237.97;;;8.97;72.70
30516;BME280;17297;54.022;10.760;2023-12-20T10:49:54;100240.50;;;8.98;72.55
30516;BME280;17297;54.022;10.760;2023-12-20T10:52:23;100242.97;;;9.00;72.76
30516;BME280;17297;54.022;10.760;2023-12-20T10:54:48;100237.41;;;9.01;72.66
30516;BME280;17297;54.022;10.760;2023-12-20T10:57:16;100232.69;;;9.04;72.65
30516;BME280;17297;54.022;10.760;2023-12-20T10:59:44;100226.28;;;9.05;72.55
30516;BME280;17297;54.022;10.760;2023-12-20T11:02:11;100224.25;;;9.07;72.78
30516;BME280;17297;54.022;10.760;2023-12-20T11:04:47;100228.19;;;9.11;72.92
30516;BME280;17297;54.022;10.760;2023-12-20T11:08:08;100240.19;;;9.15;72.88
30516;BME280;17297;54.022;10.760;2023-12-20T11:10:31;100233.59;;;9.17;72.82
30516;BME280;17297;54.022;10.760;2023-12-20T11:13:10;100234.25;;;9.19;72.58
30516;BME280;17297;54.022;10.760;2023-12-20T11:15:36;100242.91;;;9.21;72.50
30516;BME280;17297;54.022;10.760;2023-12-20T11:18:03;100236.53;;;9.22;72.45
30516;BME280;17297;54.022;10.760;2023-12-20T11:20:39;100244.38;;;9.24;72.51
30516;BME280;17297;54.022;10.760;2023-12-20T11:23:06;100240.06;;;9.23;72.42
30516;BME280;17297;54.022;10.760;2023-12-20T11:25:52;100235.69;;;9.22;72.46
30516;BME280;17297;54.022;10.760;2023-12-20T11:28:22;100227.03;;;9.20;72.43
30516;BME280;17297;54.022;10.760;2023-12-20T11:30:49;100219.53;;;9.15;72.26
30516;BME280;17297;54.022;10.760;2023-12-20T11:33:15;100224.28;;;9.13;72.21
30516;BME280;17297;54.022;10.760;2023-12-20T11:35:42;100223.66;;;9.11;72.25
30516;BME280;17297;54.022;10.760;2023-12-20T11:38:10;100227.16;;;9.12;72.33
30516;BME280;17297;54.022;10.760;2023-12-20T11:40:36;100216.03;;;9.15;72.26
30516;BME280;17297;54.022;10.760;2023-12-20T11:43:03;100216.69;;;9.17;72.36
30516;BME280;17297;54.022;10.760;2023-12-20T11:45:29;100218.31;;;9.18;72.44
30516;BME280;17297;54.022;10.760;2023-12-20T11:47:56;100221.66;;;9.20;72.35
30516;BME280;17297;54.022;10.760;2023-12-20T11:50:23;100223.31;;;9.21;72.25
30516;BME280;17297;54.022;10.760;2023-12-20T11:52:50;100223.50;;;9.19;72.23
30516;BME280;17297;54.022;10.760;2023-12-20T11:55:16;100225.56;;;9.17;71.94
30516;BME280;17297;54.022;10.760;2023-12-20T11:57:43;100219.53;;;9.15;72.01
30516;BME280;17297;54.022;10.760;2023-12-20T12:00:08;100231.97;;;9.16;71.87
30516;BME280;17297;54.022;10.760;2023-12-20T12:02:40;100224.28;;;9.13;72.06
30516;BME280;17297;54.022;10.760;2023-12-20T12:05:06;100210.88;;;9.13;71.96
30516;BME280;17297;54.022;10.760;2023-12-20T12:07:33;100209.19;;;9.12;71.95
30516;BME280;17297;54.022;10.760;2023-12-20T12:09:58;100211.69;;;9.14;72.00
30516;BME280;17297;54.022;10.760;2023-12-20T12:12:24;100214.19;;;9.15;72.16
30516;BME280;17297;54.022;10.760;2023-12-20T12:14:50;100216.47;;;9.18;72.10
30516;BME280;17297;54.022;10.760;2023-12-20T12:17:16;100223.13;;;9.22;72.24
30516;BME280;17297;54.022;10.760;2023-12-20T12:19:42;100213.00;;;9.24;72.11
30516;BME280;17297;54.022;10.760;2023-12-20T12:22:09;100214.47;;;9.27;72.24
30516;BME280;17297;54.022;10.760;2023-12-20T12:24:46;100214.28;;;9.29;72.13
30516;BME280;17297;54.022;10.760;2023-12-20T12:27:15;100212.22;;;9.31;72.05
30516;BME280;17297;54.022;10.760;2023-12-20T12:29:42;100215.31;;;9.34;72.10
30516;BME280;17297;54.022;10.760;2023-12-20T12:32:25;100205.22;;;9.36;72.08
30516;BME280;17297;54.022;10.760;2023-12-20T12:34:50;100211.41;;;9.37;72.09
30516;BME280;17297;54.022;10.760;2023-12-20T12:37:15;100190.59;;;9.39;71.94
30516;BME280;17297;54.022;10.760;2023-12-20T12:39:41;100196.78;;;9.39;72.02
30516;BME280;17297;54.022;10.760;2023-12-20T12:42:06;100188.72;;;9.39;71.93
30516;BME280;17297;54.022;10.760;2023-12-20T12:44:31;100207.34;;;9.41;71.71
30516;BME280;17297;54.022;10.760;2023-12-20T12:46:57;100187.50;;;9.42;71.84
30516;BME280;17297;54.022;10.760;2023-12-20T12:49:22;100205.47;;;9.41;71.71